Orr, Minnesota
Current Conditions -  °F | °C
As of 12:53 PM on Friday 24 Oct 2014 (Local Time) from KORB Reporting Station
Clear Clear  
Wind Chill: 64°   Ceiling: Unl
Heat Index: 64°   Visibility: 10mi
Dew Point: 39°   Wind: 3mph
Humidity: 40%   Direction: 220°SW
Pressure: 29.74"   Gusts: 16mph
Location:  48.05°N, 92.83°W
Report Text: KORB 241753Z AUTO 22003G14KT 10SM CLR 18/04 A2974 RMK AO2
Loading
Personal Weather Stations






























Interactive Weather Map
Tropical Storm Tracking
New forecast layout! Learn more

10-Day Weather Forecast

Advertisements
Track Severe Weather on mobile